createdAt,value
2023-03-31T00:00:23.129Z,18.09
2023-03-31T00:02:55.695Z,17.85
2023-03-31T00:05:26.298Z,17.41
2023-03-31T00:08:02.796Z,17.51
2023-03-31T00:10:36.531Z,17.52
2023-03-31T00:13:15.370Z,17.80
2023-03-31T00:15:45.226Z,17.97
2023-03-31T00:18:15.076Z,17.59
2023-03-31T00:20:47.691Z,17.58
2023-03-31T00:23:17.538Z,17.41
2023-03-31T00:25:47.500Z,17.73
2023-03-31T00:28:17.432Z,17.39
2023-03-31T00:30:48.704Z,17.53
2023-03-31T00:33:18.768Z,17.32
2023-03-31T00:35:48.561Z,17.60
2023-03-31T00:38:18.296Z,17.85
2023-03-31T00:40:49.550Z,18.05
2023-03-31T00:43:37.830Z,18.76
2023-03-31T00:46:22.942Z,19.20
2023-03-31T00:48:55.146Z,19.89
2023-03-31T00:51:25.228Z,20.40
2023-03-31T00:54:01.348Z,20.24
2023-03-31T00:56:32.506Z,20.76
2023-03-31T00:59:05.284Z,20.77
2023-03-31T01:01:40.328Z,20.90
2023-03-31T01:04:11.358Z,21.11
2023-03-31T01:06:43.966Z,21.21
2023-03-31T01:09:14.124Z,21.38
2023-03-31T01:11:43.854Z,21.01
2023-03-31T01:14:16.408Z,21.11
2023-03-31T01:16:46.227Z,21.19
2023-03-31T01:19:30.225Z,21.34
2023-03-31T01:22:23.037Z,21.25
2023-03-31T01:25:34.326Z,21.43
2023-03-31T01:28:38.664Z,21.86
2023-03-31T01:31:35.786Z,21.62
2023-03-31T01:34:23.682Z,22.10
2023-03-31T01:37:03.191Z,21.85
2023-03-31T01:39:59.864Z,22.14
2023-03-31T01:42:38.635Z,22.19
2023-03-31T01:45:18.274Z,21.49
2023-03-31T01:48:08.395Z,21.65
2023-03-31T01:50:49.642Z,21.85
2023-03-31T01:53:32.332Z,21.67
2023-03-31T01:56:17.990Z,21.95
2023-03-31T01:59:06.058Z,22.12
2023-03-31T02:01:45.954Z,22.14
2023-03-31T02:04:27.513Z,22.07
2023-03-31T02:07:06.597Z,21.58
2023-03-31T02:09:40.289Z,22.07
2023-03-31T02:12:11.769Z,21.98
2023-03-31T02:14:44.761Z,21.87
2023-03-31T02:17:19.712Z,21.55
2023-03-31T02:19:51.608Z,22.07
2023-03-31T02:22:21.316Z,21.93
2023-03-31T02:24:51.044Z,21.74
2023-03-31T02:27:32.114Z,22.21
2023-03-31T02:30:06.215Z,21.82
2023-03-31T02:32:43.797Z,22.27
2023-03-31T02:35:17.697Z,22.18
2023-03-31T02:37:51.392Z,22.12
2023-03-31T02:40:23.478Z,22.26
2023-03-31T02:42:53.900Z,22.37
2023-03-31T02:45:54.011Z,22.29
2023-03-31T02:48:25.422Z,22.51
2023-03-31T02:51:04.192Z,22.44
2023-03-31T02:53:43.051Z,22.72
2023-03-31T02:56:38.179Z,23.02
2023-03-31T02:59:14.002Z,22.91
2023-03-31T03:02:17.383Z,23.41
2023-03-31T03:05:21.716Z,23.48
2023-03-31T03:08:12.750Z,23.00
2023-03-31T03:10:51.368Z,22.67
2023-03-31T03:13:49.630Z,22.92
2023-03-31T03:16:27.498Z,23.27
2023-03-31T03:19:04.001Z,23.25
2023-03-31T03:21:33.810Z,22.80
2023-03-31T03:24:03.531Z,23.08
2023-03-31T03:26:36.814Z,23.23
2023-03-31T03:29:06.783Z,22.92
2023-03-31T03:31:37.845Z,22.95
2023-03-31T03:34:08.661Z,23.26
2023-03-31T03:36:45.036Z,23.14
2023-03-31T03:39:14.867Z,23.26
2023-03-31T03:41:44.642Z,23.13
2023-03-31T03:44:14.500Z,23.26
2023-03-31T03:46:44.380Z,23.20
2023-03-31T03:49:14.083Z,23.23
2023-03-31T03:51:43.752Z,23.64
2023-03-31T03:54:13.511Z,23.81
2023-03-31T03:56:43.165Z,23.54
2023-03-31T03:59:13.895Z,23.54
2023-03-31T04:01:51.785Z,23.28
2023-03-31T04:04:28.496Z,23.41
2023-03-31T04:07:01.073Z,23.12
2023-03-31T04:09:34.037Z,23.31
2023-03-31T04:12:06.818Z,23.41
2023-03-31T04:14:44.997Z,23.45
2023-03-31T04:17:17.327Z,23.78
2023-03-31T04:19:55.867Z,23.30
2023-03-31T04:22:30.580Z,23.36
2023-03-31T04:25:05.275Z,23.35
2023-03-31T04:27:40.446Z,23.58
2023-03-31T04:30:18.107Z,23.74
2023-03-31T04:32:58.614Z,23.87
2023-03-31T04:36:00.055Z,23.69
2023-03-31T04:38:38.640Z,23.98
2023-03-31T04:41:15.262Z,23.76
2023-03-31T04:43:47.812Z,23.99
2023-03-31T04:46:22.428Z,23.80
2023-03-31T04:48:53.506Z,23.79
2023-03-31T04:51:29.193Z,23.91
2023-03-31T04:54:05.679Z,23.67
2023-03-31T04:56:36.742Z,23.87
2023-03-31T04:59:08.189Z,23.86
2023-03-31T05:01:50.397Z,23.94
2023-03-31T05:04:30.175Z,23.92
2023-03-31T05:07:04.708Z,23.74
2023-03-31T05:09:38.003Z,23.84
2023-03-31T05:12:14.137Z,23.62
2023-03-31T05:14:51.886Z,23.40
2023-03-31T05:17:23.005Z,23.23
2023-03-31T05:20:00.131Z,23.29
2023-03-31T05:22:32.686Z,23.64
2023-03-31T05:25:09.765Z,23.25
2023-03-31T05:27:49.591Z,23.64
2023-03-31T05:30:23.575Z,23.92
2023-03-31T05:32:58.660Z,24.20
2023-03-31T05:35:33.869Z,24.00
2023-03-31T05:38:03.572Z,23.92
2023-03-31T05:40:39.274Z,24.21
2023-03-31T05:43:10.126Z,24.29
2023-03-31T05:45:45.741Z,24.28
2023-03-31T05:48:16.871Z,24.28
2023-03-31T05:50:52.284Z,24.40
2023-03-31T05:53:26.383Z,25.04
2023-03-31T05:56:05.863Z,24.45
2023-03-31T05:58:42.635Z,24.42
2023-03-31T06:01:18.946Z,24.36
2023-03-31T06:03:50.260Z,24.41
2023-03-31T06:06:23.863Z,24.63
2023-03-31T06:09:04.173Z,24.34
2023-03-31T06:11:34.778Z,24.75
2023-03-31T06:14:06.569Z,24.66
2023-03-31T06:16:38.583Z,24.61
2023-03-31T06:19:11.952Z,24.39
2023-03-31T06:21:45.785Z,24.56
2023-03-31T06:24:19.489Z,24.43
2023-03-31T06:26:54.056Z,24.19
2023-03-31T06:29:29.134Z,24.47
2023-03-31T06:32:02.772Z,24.54
2023-03-31T06:34:38.232Z,24.30
2023-03-31T06:37:11.698Z,24.56
2023-03-31T06:39:41.420Z,24.37
2023-03-31T06:42:12.261Z,24.37
2023-03-31T06:44:46.954Z,24.13
2023-03-31T06:47:24.874Z,24.21
2023-03-31T06:49:57.534Z,24.30
2023-03-31T06:52:36.615Z,24.18
2023-03-31T06:55:07.475Z,24.16
2023-03-31T06:57:38.762Z,24.17
2023-03-31T07:00:11.678Z,23.87
2023-03-31T07:02:47.925Z,24.23
2023-03-31T07:05:18.498Z,24.27
2023-03-31T07:07:50.188Z,24.26
2023-03-31T07:10:19.968Z,24.00
2023-03-31T07:12:50.850Z,24.23
2023-03-31T07:15:22.938Z,23.96
2023-03-31T07:17:57.847Z,23.82
2023-03-31T07:20:28.957Z,23.81
2023-03-31T07:23:01.753Z,23.85
2023-03-31T07:25:34.258Z,24.16
2023-03-31T07:28:08.955Z,23.87
2023-03-31T07:30:40.561Z,23.88
2023-03-31T07:33:12.363Z,23.98
2023-03-31T07:35:43.066Z,23.83
2023-03-31T07:38:14.209Z,23.86
2023-03-31T07:40:55.696Z,23.71
2023-03-31T07:43:31.795Z,23.82
2023-03-31T07:46:02.366Z,23.53
2023-03-31T07:48:32.558Z,23.64
2023-03-31T07:51:05.655Z,23.93
2023-03-31T07:53:40.509Z,23.58
2023-03-31T07:56:11.231Z,23.81
2023-03-31T07:58:40.900Z,23.77
2023-03-31T08:01:11.649Z,24.00
2023-03-31T08:03:42.987Z,23.86
2023-03-31T08:06:19.779Z,23.88
2023-03-31T08:08:53.163Z,23.94
2023-03-31T08:11:25.590Z,23.90
2023-03-31T08:13:55.792Z,23.90
2023-03-31T08:16:27.631Z,23.70
2023-03-31T08:19:03.885Z,23.61
2023-03-31T08:21:34.084Z,23.89
2023-03-31T08:24:04.660Z,23.56
2023-03-31T08:26:36.588Z,23.39
2023-03-31T08:29:09.575Z,23.55
2023-03-31T08:31:39.444Z,23.85
2023-03-31T08:34:09.699Z,23.40
2023-03-31T08:36:39.359Z,23.52
2023-03-31T08:39:09.663Z,23.89
2023-03-31T08:42:02.368Z,23.76
2023-03-31T08:44:58.246Z,23.59
2023-03-31T08:47:29.492Z,23.50
2023-03-31T08:50:03.064Z,23.49
2023-03-31T08:52:39.077Z,23.65
2023-03-31T08:55:12.563Z,23.88
2023-03-31T08:58:00.359Z,23.71
2023-03-31T09:00:30.065Z,23.52
2023-03-31T09:03:09.600Z,23.71
2023-03-31T09:05:52.971Z,23.85
2023-03-31T09:08:42.528Z,23.82
2023-03-31T09:11:15.804Z,23.75
2023-03-31T09:14:20.312Z,23.54
2023-03-31T09:17:15.193Z,23.67
2023-03-31T09:19:46.451Z,23.75
2023-03-31T09:22:19.945Z,23.61
2023-03-31T09:25:01.275Z,23.62
2023-03-31T09:27:33.403Z,23.54
2023-03-31T09:30:12.960Z,23.82
2023-03-31T09:32:42.633Z,23.62
2023-03-31T09:35:27.203Z,23.90
2023-03-31T09:37:56.978Z,24.00
2023-03-31T09:40:28.275Z,23.81
2023-03-31T09:43:03.784Z,23.63
2023-03-31T09:45:35.489Z,23.90
2023-03-31T09:48:08.537Z,23.46
2023-03-31T09:50:53.080Z,23.84
2023-03-31T09:53:45.705Z,23.64
2023-03-31T09:56:15.871Z,23.61
2023-03-31T09:58:47.754Z,23.92
2023-03-31T10:01:17.755Z,24.10
2023-03-31T10:03:57.571Z,23.83
2023-03-31T10:06:28.284Z,23.70
2023-03-31T10:09:03.766Z,24.00
2023-03-31T10:11:32.920Z,23.96
2023-03-31T10:14:06.781Z,24.04
2023-03-31T10:16:45.407Z,23.65
2023-03-31T10:19:24.940Z,23.70
2023-03-31T10:22:20.960Z,24.06
2023-03-31T10:24:51.983Z,23.77
2023-03-31T10:27:24.107Z,24.00
2023-03-31T10:30:13.573Z,23.82
2023-03-31T10:32:48.083Z,23.86
2023-03-31T10:35:26.601Z,23.91
2023-03-31T10:38:06.673Z,23.80
2023-03-31T10:40:36.433Z,23.71
2023-03-31T10:43:20.086Z,23.91
2023-03-31T10:45:57.799Z,23.95
2023-03-31T10:48:30.088Z,23.70
2023-03-31T10:51:28.336Z,23.79
2023-03-31T10:53:59.377Z,23.73
2023-03-31T10:56:42.197Z,23.88
2023-03-31T10:59:36.200Z,23.69
2023-03-31T11:02:30.875Z,23.81
2023-03-31T11:05:02.968Z,24.02
2023-03-31T11:08:09.009Z,24.08
2023-03-31T11:10:56.898Z,23.96
2023-03-31T11:14:01.207Z,24.09
2023-03-31T11:16:42.191Z,24.13
2023-03-31T11:19:20.619Z,23.96
2023-03-31T11:22:11.273Z,23.87
2023-03-31T11:25:17.129Z,24.00
2023-03-31T11:28:13.965Z,23.83
2023-03-31T11:30:53.702Z,24.14
2023-03-31T11:33:45.612Z,24.10
2023-03-31T11:36:38.457Z,23.96
2023-03-31T11:39:13.996Z,23.94
2023-03-31T11:41:56.352Z,23.89
2023-03-31T11:44:26.527Z,24.17
2023-03-31T11:47:02.790Z,23.92
2023-03-31T11:49:40.601Z,24.14
2023-03-31T11:52:17.632Z,23.99
2023-03-31T11:55:03.559Z,23.89
2023-03-31T11:57:43.808Z,23.89
2023-03-31T12:00:24.164Z,23.95
2023-03-31T12:03:12.786Z,23.88
2023-03-31T12:06:10.156Z,24.02
2023-03-31T12:08:40.020Z,23.94
2023-03-31T12:11:34.994Z,24.06
2023-03-31T12:14:32.039Z,24.13
2023-03-31T12:17:14.661Z,24.08
2023-03-31T12:19:54.949Z,23.97
2023-03-31T12:22:31.991Z,24.02
2023-03-31T12:25:01.986Z,23.82
2023-03-31T12:27:46.421Z,24.06
2023-03-31T12:30:20.465Z,23.87
2023-03-31T12:33:09.284Z,23.97
2023-03-31T12:35:48.141Z,23.95
2023-03-31T12:38:53.501Z,24.16
2023-03-31T12:41:28.684Z,23.85
2023-03-31T12:44:06.355Z,24.11
2023-03-31T12:46:42.125Z,24.11
2023-03-31T12:49:14.653Z,24.04
2023-03-31T12:52:02.510Z,23.87
2023-03-31T12:54:41.635Z,24.13
2023-03-31T12:57:11.375Z,24.03
2023-03-31T12:59:42.900Z,24.05
2023-03-31T13:02:13.874Z,23.94
2023-03-31T13:04:43.823Z,23.85
2023-03-31T13:07:40.698Z,23.98
2023-03-31T13:10:19.496Z,23.76
2023-03-31T13:13:19.667Z,24.08
2023-03-31T13:15:59.269Z,23.95
2023-03-31T13:18:36.616Z,23.87
2023-03-31T13:21:10.530Z,23.97
2023-03-31T13:23:40.102Z,23.87
2023-03-31T13:26:22.078Z,23.69
2023-03-31T13:29:15.332Z,23.85
2023-03-31T13:32:03.659Z,24.05
2023-03-31T13:35:25.218Z,23.66
2023-03-31T13:38:19.018Z,23.80
2023-03-31T13:41:29.604Z,23.94
2023-03-31T13:44:23.352Z,23.69
2023-03-31T13:46:56.705Z,23.68
2023-03-31T13:49:54.397Z,23.74
2023-03-31T13:52:47.579Z,23.77
2023-03-31T13:55:26.832Z,23.91
2023-03-31T13:58:32.888Z,23.73
2023-03-31T14:01:27.203Z,23.91
2023-03-31T14:04:19.115Z,23.92
2023-03-31T14:07:02.329Z,23.96
2023-03-31T14:09:38.085Z,23.83
2023-03-31T14:12:37.045Z,23.85
2023-03-31T14:15:08.688Z,23.89
2023-03-31T14:17:45.109Z,23.76
2023-03-31T14:20:35.878Z,23.83
2023-03-31T14:23:17.785Z,23.94
2023-03-31T14:26:07.181Z,23.72
2023-03-31T14:28:39.333Z,23.67
2023-03-31T14:31:27.256Z,23.90
2023-03-31T14:34:31.863Z,24.00
2023-03-31T14:37:08.653Z,23.96
2023-03-31T14:39:48.716Z,23.81
2023-03-31T14:42:31.107Z,24.01
2023-03-31T14:45:07.972Z,23.80
2023-03-31T14:47:38.584Z,23.85
2023-03-31T14:50:19.210Z,23.80
2023-03-31T14:52:52.869Z,24.11
2023-03-31T14:55:31.960Z,23.98
2023-03-31T14:58:14.303Z,24.03
2023-03-31T15:00:45.371Z,23.79
2023-03-31T15:03:20.476Z,23.99
2023-03-31T15:05:50.435Z,23.87
2023-03-31T15:08:25.223Z,23.85
2023-03-31T15:11:11.917Z,24.08
2023-03-31T15:14:05.140Z,24.06
2023-03-31T15:16:46.912Z,24.00
2023-03-31T15:19:50.162Z,23.95
2023-03-31T15:22:23.856Z,24.10
2023-03-31T15:25:00.465Z,24.05
2023-03-31T15:27:37.000Z,23.94
2023-03-31T15:30:09.275Z,24.15
2023-03-31T15:32:41.161Z,24.00
2023-03-31T15:35:28.936Z,23.89
2023-03-31T15:37:59.740Z,24.02
2023-03-31T15:40:44.832Z,23.98
2023-03-31T15:43:40.364Z,23.87
2023-03-31T15:46:22.228Z,23.95
2023-03-31T15:48:56.466Z,23.95
2023-03-31T15:51:44.051Z,23.99
2023-03-31T15:54:31.448Z,24.12
2023-03-31T15:57:10.692Z,24.04
2023-03-31T15:59:56.438Z,24.09
2023-03-31T16:02:48.683Z,24.01
2023-03-31T16:05:54.340Z,24.12
2023-03-31T16:08:37.991Z,24.11
2023-03-31T16:11:18.695Z,24.00
2023-03-31T16:13:52.442Z,23.95
2023-03-31T16:16:24.113Z,24.20
2023-03-31T16:19:05.511Z,24.12
2023-03-31T16:21:49.124Z,23.99
2023-03-31T16:24:23.696Z,24.03
2023-03-31T16:26:54.539Z,24.09
2023-03-31T16:29:31.036Z,24.04
2023-03-31T16:32:13.709Z,23.99
2023-03-31T16:35:03.149Z,24.22
2023-03-31T16:37:36.684Z,24.02
2023-03-31T16:40:08.027Z,24.22
2023-03-31T16:42:40.076Z,24.07
2023-03-31T16:45:16.751Z,24.03
2023-03-31T16:47:46.891Z,24.12
2023-03-31T16:50:17.245Z,24.07
2023-03-31T16:52:48.774Z,23.93
2023-03-31T16:55:20.276Z,23.91
2023-03-31T16:57:50.039Z,24.15
2023-03-31T17:00:24.619Z,24.10
2023-03-31T17:02:55.587Z,24.05
2023-03-31T17:05:30.807Z,24.19
2023-03-31T17:08:01.206Z,24.17
2023-03-31T17:10:31.518Z,24.02
2023-03-31T17:13:01.552Z,23.98
2023-03-31T17:15:31.355Z,23.87
2023-03-31T17:18:01.229Z,24.06
2023-03-31T17:20:32.148Z,24.10
2023-03-31T17:23:04.116Z,24.18
2023-03-31T17:25:34.521Z,24.05
2023-03-31T17:28:05.828Z,23.94
2023-03-31T17:30:38.051Z,24.12
2023-03-31T17:33:09.034Z,23.93
2023-03-31T17:35:39.055Z,24.11
2023-03-31T17:38:10.730Z,24.09
2023-03-31T17:40:40.737Z,24.08
2023-03-31T17:43:10.556Z,24.04
2023-03-31T17:45:40.912Z,24.10
2023-03-31T17:48:11.402Z,24.11
2023-03-31T17:50:41.296Z,24.11
2023-03-31T17:53:11.061Z,24.24
2023-03-31T17:55:40.778Z,24.25
2023-03-31T17:58:15.044Z,24.01
2023-03-31T18:00:44.792Z,24.03
2023-03-31T18:03:15.565Z,23.77
2023-03-31T18:05:46.446Z,24.13
2023-03-31T18:08:16.178Z,24.19
2023-03-31T18:10:45.985Z,24.32
2023-03-31T18:13:15.783Z,24.20
2023-03-31T18:15:50.593Z,24.42
2023-03-31T18:18:20.837Z,24.38
2023-03-31T18:20:50.487Z,24.42
2023-03-31T18:23:20.144Z,24.33
2023-03-31T18:25:50.004Z,24.31
2023-03-31T18:28:19.992Z,24.25
2023-03-31T18:30:49.705Z,24.39
2023-03-31T18:33:19.566Z,24.32
2023-03-31T18:35:50.029Z,24.29
2023-03-31T18:38:21.245Z,24.26
2023-03-31T18:40:51.937Z,24.29
2023-03-31T18:43:26.003Z,24.25
2023-03-31T18:45:56.884Z,24.39
2023-03-31T18:48:26.893Z,24.26
2023-03-31T18:50:56.609Z,24.35
2023-03-31T18:53:26.735Z,24.18
2023-03-31T18:56:00.821Z,24.34
2023-03-31T18:58:31.626Z,24.14
2023-03-31T19:01:02.699Z,24.28
2023-03-31T19:06:13.880Z,24.30
2023-03-31T19:08:43.620Z,24.27
2023-03-31T19:11:17.704Z,24.34
2023-03-31T19:13:47.547Z,24.29
2023-03-31T19:16:17.390Z,24.44
2023-03-31T19:18:47.115Z,24.33
2023-03-31T19:21:16.847Z,24.39
2023-03-31T19:23:46.538Z,24.49
2023-03-31T19:26:21.095Z,24.55
2023-03-31T19:28:50.816Z,24.41
2023-03-31T19:31:20.544Z,24.50
2023-03-31T19:33:50.286Z,24.42
2023-03-31T19:36:20.021Z,24.36
2023-03-31T19:38:49.760Z,24.47
2023-03-31T19:41:19.867Z,24.49
2023-03-31T19:43:49.535Z,24.60
2023-03-31T19:46:19.235Z,24.41
2023-03-31T19:48:48.993Z,24.49
2023-03-31T19:51:18.790Z,24.51
2023-03-31T19:53:48.514Z,24.44
2023-03-31T19:56:22.424Z,24.56
2023-03-31T19:58:53.438Z,24.53
2023-03-31T20:01:28.714Z,24.62
2023-03-31T20:03:58.741Z,24.48
2023-03-31T20:06:30.048Z,24.66
2023-03-31T20:09:01.508Z,24.77
2023-03-31T20:11:32.454Z,24.58
2023-03-31T20:14:02.267Z,24.76
2023-03-31T20:16:32.586Z,24.74
2023-03-31T20:19:06.877Z,24.89
2023-03-31T20:21:38.317Z,24.83
2023-03-31T20:24:08.652Z,24.83
2023-03-31T20:26:38.447Z,24.71
2023-03-31T20:29:08.213Z,24.75
2023-03-31T20:31:41.620Z,24.73
2023-03-31T20:34:16.486Z,24.89
2023-03-31T20:36:47.938Z,24.94
2023-03-31T20:39:17.758Z,24.82
2023-03-31T20:41:47.634Z,24.81
2023-03-31T20:44:19.974Z,24.84
2023-03-31T20:46:50.099Z,24.94
2023-03-31T20:49:19.853Z,24.84
2023-03-31T20:51:50.593Z,24.80
2023-03-31T20:54:20.639Z,24.93
2023-03-31T20:56:51.926Z,24.92
2023-03-31T20:59:23.163Z,24.96
2023-03-31T21:01:53.189Z,25.13
2023-03-31T21:04:23.468Z,25.28
2023-03-31T21:06:53.298Z,25.14
2023-03-31T21:09:23.216Z,25.25
2023-03-31T21:11:53.477Z,25.42
2023-03-31T21:14:23.304Z,25.35
2023-03-31T21:16:52.960Z,25.35
2023-03-31T21:19:22.715Z,25.44
2023-03-31T21:21:52.630Z,25.50
2023-03-31T21:24:22.451Z,25.44
2023-03-31T21:26:52.280Z,25.28
2023-03-31T21:29:22.015Z,25.40
2023-03-31T21:31:51.771Z,25.42
2023-03-31T21:34:21.487Z,25.48
2023-03-31T21:36:51.776Z,25.44
2023-03-31T21:39:25.769Z,25.34
2023-03-31T21:41:55.470Z,25.35
2023-03-31T21:44:25.137Z,25.52
2023-03-31T21:46:54.955Z,25.54
2023-03-31T21:49:25.173Z,25.83
2023-03-31T21:51:54.893Z,25.72
2023-03-31T21:54:24.793Z,25.63
2023-03-31T21:56:54.968Z,25.58
2023-03-31T21:59:24.703Z,25.73
2023-03-31T22:01:54.920Z,25.78
2023-03-31T22:04:24.753Z,25.70
2023-03-31T22:06:54.394Z,25.47
2023-03-31T22:09:24.010Z,25.63
2023-03-31T22:11:54.208Z,25.54
2023-03-31T22:14:23.806Z,25.42
2023-03-31T22:16:54.015Z,25.44
2023-03-31T22:19:23.665Z,25.34
2023-03-31T22:21:53.393Z,25.37
2023-03-31T22:24:23.064Z,25.50
2023-03-31T22:26:52.845Z,25.37
2023-03-31T22:29:22.462Z,25.52
2023-03-31T22:31:52.270Z,25.39
2023-03-31T22:34:21.983Z,25.47
2023-03-31T22:36:51.827Z,25.54
2023-03-31T22:39:21.545Z,25.33
2023-03-31T22:41:51.449Z,25.46
2023-03-31T22:44:21.165Z,25.50
2023-03-31T22:46:52.446Z,25.50
2023-03-31T22:49:22.497Z,25.43
2023-03-31T22:51:52.231Z,25.38
2023-03-31T22:54:22.205Z,25.42
2023-03-31T22:56:51.981Z,25.55
2023-03-31T22:59:21.747Z,25.43
2023-03-31T23:01:57.418Z,25.41
2023-03-31T23:04:27.260Z,25.34
2023-03-31T23:06:57.419Z,25.39
2023-03-31T23:09:29.833Z,25.41
2023-03-31T23:11:59.538Z,25.40
2023-03-31T23:14:29.209Z,25.38
2023-03-31T23:16:59.003Z,25.14
2023-03-31T23:19:29.182Z,25.43
2023-03-31T23:21:59.936Z,25.29
2023-03-31T23:24:30.867Z,25.19
2023-03-31T23:27:00.582Z,25.14
2023-03-31T23:29:32.184Z,25.33
2023-03-31T23:32:02.131Z,24.95
2023-03-31T23:34:32.059Z,24.81
2023-03-31T23:37:01.807Z,25.11
2023-03-31T23:39:31.516Z,25.01
2023-03-31T23:42:01.161Z,25.13
2023-03-31T23:44:31.922Z,25.04
2023-03-31T23:47:01.802Z,24.83
2023-03-31T23:49:32.041Z,24.92
2023-03-31T23:52:01.870Z,24.89
2023-03-31T23:54:32.230Z,24.87
2023-03-31T23:57:02.062Z,24.81
2023-03-31T23:59:31.893Z,24.71
